LEAMLEBG

Guest
Details From LEAM - Almeria
To LEBG - Burgos
Flight Number -
Tags decoded
Created
Modified
Stats Distance 368 nm / 681 km
Max Altitude 0 ft / 0 m
Waypoints 6
Social Downloads 0
Likes 0
Share VATSIM

Download

Looking for another format? Having issues loading an existing format? Contact us
Advertisement - Login to hide

Notes

Requested: LEAM YES CJN PINAR AMGAR LEBG

Route

LEAM YES CJN PINAR AMGAR LEBG

ID Type Via Altitude Latitude Longitude Leg Dist Tot Dist Heading (true) Name
O LEAM APT - 0 ft / 0 m 36.84393˚ -2.37010˚ - 0 nm - Almeria
YES VOR - 0 ft / 0 m 38.36078˚ -2.35275˚ 91 nm 91 nm 1° / 1° YESTE VOR-DME
CJN VOR - 0 ft / 0 m 40.37196˚ -2.54461˚ 121 nm 212 nm 356° / 356° CASTEJON VOR-DME
PINAR FIX - 0 ft / 0 m 40.98029˚ -2.59917˚ 36 nm 248 nm 356° / 356° -
AMGAR FIX - 0 ft / 0 m 42.55500˚ -3.25338˚ 99 nm 347 nm 343° / 343° -
O LEBG APT - 0 ft / 0 m 42.35689˚ -3.61422˚ 19 nm 367 nm 233° / 233° Burgos

Altitude Profile

Advertisement - Login to hide

Weather


0- 5 10 15 20 25 30 35+ Temperature / ° C

Clouds and Precipitation
Forecast for 2018-05-25 12:00 UTC. Updated 4 hours ago

Ground ~20,000 ft ~40,000 ft Winds

LEAM

Details ICAO LEAM (LEI)
Name Almeria
Region Spain
Timezone Unknown (UTC+0.0)
Stats Elevation 70 ft / 21 m (AMSL)
Location 36.843935° -2.370097°
Runways 1
Magnetic Variation 0.239° W

METAR

LEAM 251530Z 22018KT 9999 FEW050 22/15 Q1011

Decode

TAF

TAF TAF LEAM 251400Z 2515/2615 23017KT 9999 FEW030 TX26/2613Z TN16/2606Z TEMPO 2515/2520 23020G32KT BECMG 2521/2524 VRB03KT BECMG 2606/2608 23014KT

Decode

Departure Runways

ID Width Length Bearing (true) Bearing (mag) Surface Threshold Offset Overrun Length
08 148 ft / 45 m 10,484 ft / 3,196 m 72.94° 73.18° Asphalt 492 ft / 150 m 191 ft / 58 m
26 148 ft / 45 m 10,484 ft / 3,196 m 252.96° 253.20° Asphalt 0 ft / 0 m 150 ft / 46 m

LEBG

Details ICAO LEBG (RGS)
Name Burgos
Region Spain
Timezone Europe/Madrid (UTC+2.0)
Stats Elevation 2,961 ft / 903 m (AMSL)
Location 42.356895° -3.614221°
Runways 1
Magnetic Variation 0.732° W

METAR

LEBG 251530Z 35006KT 320V020 9999 BKN007 BKN012 OVC040 12/12 Q1014

Decode

TAF

Not found

Destination Runways

ID Width Length Bearing (true) Bearing (mag) Surface Threshold Offset Overrun Length
04 148 ft / 45 m 6,423 ft / 1,958 m 43.31° 44.04° Asphalt 0 ft / 0 m 0 ft / 0 m
22 148 ft / 45 m 6,423 ft / 1,958 m 223.32° 224.05° Asphalt 0 ft / 0 m 0 ft / 0 m

Popular Alternatives